createdAt,value
2017-11-22T00:02:17.616Z,7.33
2017-11-22T00:04:43.994Z,7.23
2017-11-22T00:07:11.334Z,6.27
2017-11-22T00:09:37.748Z,7.47
2017-11-22T00:12:04.148Z,9.83
2017-11-22T00:14:31.274Z,6.03
2017-11-22T00:16:58.423Z,7.30
2017-11-22T00:19:24.815Z,4.63
2017-11-22T00:21:51.225Z,8.97
2017-11-22T00:24:17.703Z,7.50
2017-11-22T00:26:45.592Z,5.63
2017-11-22T00:29:12.700Z,5.60
2017-11-22T00:31:39.076Z,7.93
2017-11-22T00:34:05.461Z,10.97
2017-11-22T00:36:31.855Z,8.20
2017-11-22T00:38:59.016Z,8.63
2017-11-22T00:41:25.414Z,9.67
2017-11-22T00:43:54.166Z,7.63
2017-11-22T00:46:20.566Z,9.60
2017-11-22T00:48:46.989Z,7.63
2017-11-22T00:51:14.117Z,9.73
2017-11-22T00:53:40.509Z,8.10
2017-11-22T00:56:06.888Z,8.20
2017-11-22T00:58:33.281Z,10.60
2017-11-22T01:00:59.671Z,9.97
2017-11-22T01:03:26.067Z,9.47
2017-11-22T01:05:52.465Z,9.30
2017-11-22T01:08:18.866Z,12.63
2017-11-22T01:10:46.150Z,9.00
2017-11-22T01:13:12.542Z,9.97
2017-11-22T01:15:39.669Z,7.70
2017-11-22T01:18:07.582Z,7.70
2017-11-22T01:20:33.982Z,9.97
2017-11-22T01:23:01.133Z,12.43
2017-11-22T01:25:28.273Z,6.80
2017-11-22T01:27:54.674Z,15.97
2017-11-22T01:30:21.096Z,10.60
2017-11-22T01:32:47.487Z,8.03
2017-11-22T01:35:14.705Z,14.70
2017-11-22T01:37:42.645Z,7.77
2017-11-22T01:40:09.235Z,14.90
2017-11-22T01:42:36.447Z,13.03
2017-11-22T01:45:03.015Z,8.67
2017-11-22T01:47:30.949Z,8.30
2017-11-22T01:49:57.387Z,10.50
2017-11-22T01:52:23.783Z,8.97
2017-11-22T01:54:50.189Z,7.30
2017-11-22T01:57:17.322Z,8.30
2017-11-22T01:59:45.188Z,9.50
2017-11-22T02:02:12.399Z,14.27
2017-11-22T02:04:38.788Z,8.87
2017-11-22T02:07:05.159Z,8.70
2017-11-22T02:09:31.535Z,16.93
2017-11-22T02:11:59.392Z,8.50
2017-11-22T02:14:25.777Z,13.93
2017-11-22T02:16:52.170Z,12.13
2017-11-22T02:19:20.066Z,9.17
2017-11-22T02:21:46.560Z,7.93
2017-11-22T02:24:13.104Z,13.13
2017-11-22T02:26:40.240Z,8.70
2017-11-22T02:29:06.657Z,9.70
2017-11-22T02:31:33.107Z,8.80
2017-11-22T02:33:59.518Z,12.23
2017-11-22T02:36:25.975Z,12.67
2017-11-22T02:38:53.889Z,14.70
2017-11-22T02:41:20.316Z,11.93
2017-11-22T02:43:46.763Z,8.73
2017-11-22T02:46:13.164Z,6.03
2017-11-22T02:48:40.544Z,16.20
2017-11-22T02:51:07.721Z,8.80
2017-11-22T02:53:34.134Z,9.40
2017-11-22T02:56:00.588Z,9.10
2017-11-22T02:58:27.002Z,8.90
2017-11-22T03:00:53.424Z,13.73
2017-11-22T03:03:19.844Z,17.53
2017-11-22T03:05:47.117Z,11.93
2017-11-22T03:08:13.564Z,12.00
2017-11-22T03:10:39.974Z,12.20
2017-11-22T03:13:06.384Z,19.23
2017-11-22T03:15:32.768Z,12.80
2017-11-22T03:17:59.153Z,12.70
2017-11-22T03:20:26.303Z,12.97
2017-11-22T03:22:53.439Z,13.70
2017-11-22T03:25:20.559Z,12.17
2017-11-22T03:27:46.962Z,15.07
2017-11-22T03:30:13.431Z,13.53
2017-11-22T03:32:39.891Z,13.23
2017-11-22T03:35:07.001Z,17.70
2017-11-22T03:37:33.411Z,15.80
2017-11-22T03:39:59.862Z,11.63
2017-11-22T03:42:26.416Z,16.83
2017-11-22T03:44:52.839Z,14.67
2017-11-22T03:47:19.273Z,18.13
2017-11-22T03:49:52.528Z,13.87
2017-11-22T03:52:25.107Z,11.77
2017-11-22T03:54:51.505Z,12.73
2017-11-22T03:57:17.921Z,13.20
2017-11-22T03:59:47.233Z,22.07
2017-11-22T04:02:14.341Z,15.70
2017-11-22T04:04:40.754Z,13.27
2017-11-22T04:07:07.136Z,14.30
2017-11-22T04:09:33.542Z,15.90
2017-11-22T04:11:59.943Z,12.23
2017-11-22T04:14:26.336Z,17.47
2017-11-22T04:16:52.727Z,18.47
2017-11-22T04:19:25.121Z,11.13
2017-11-22T04:21:51.496Z,18.07
2017-11-22T04:24:18.663Z,14.87
2017-11-22T04:26:45.064Z,15.80
2017-11-22T04:29:12.196Z,16.00
2017-11-22T04:31:38.611Z,19.20
2017-11-22T04:34:05.010Z,12.27
2017-11-22T04:36:31.401Z,12.33
2017-11-22T04:38:57.809Z,16.13
2017-11-22T04:41:24.200Z,12.43
2017-11-22T04:43:51.492Z,13.50
2017-11-22T04:46:17.943Z,15.07
2017-11-22T04:48:45.854Z,18.27
2017-11-22T04:51:13.071Z,15.50
2017-11-22T04:53:39.505Z,21.73
2017-11-22T04:56:06.645Z,17.57
2017-11-22T04:58:33.273Z,14.03
2017-11-22T05:00:59.718Z,15.83
2017-11-22T05:03:26.147Z,13.30
2017-11-22T05:05:52.548Z,12.10
2017-11-22T05:08:18.996Z,17.73
2017-11-22T05:10:45.442Z,14.10
2017-11-22T05:13:11.857Z,15.90
2017-11-22T05:15:38.265Z,16.57
2017-11-22T05:18:04.657Z,14.07
2017-11-22T05:20:31.787Z,15.70
2017-11-22T05:22:58.172Z,25.23
2017-11-22T05:25:25.298Z,13.43
2017-11-22T05:27:52.413Z,13.80
2017-11-22T05:30:18.808Z,17.20
2017-11-22T05:32:45.190Z,11.13
2017-11-22T05:35:11.594Z,22.70
2017-11-22T05:37:37.982Z,17.30
2017-11-22T05:40:05.136Z,16.37
2017-11-22T05:42:32.297Z,16.63
2017-11-22T05:44:58.858Z,17.73
2017-11-22T05:47:25.267Z,16.50
2017-11-22T05:49:51.669Z,14.20
2017-11-22T05:52:18.250Z,11.97
2017-11-22T05:54:44.682Z,18.57
2017-11-22T05:57:11.144Z,15.70
2017-11-22T05:59:37.575Z,15.67
2017-11-22T06:02:04.028Z,17.10
2017-11-22T06:04:30.474Z,18.43
2017-11-22T06:06:57.617Z,19.77
2017-11-22T06:09:24.769Z,18.53
2017-11-22T06:11:51.944Z,22.20
2017-11-22T06:14:19.103Z,20.23
2017-11-22T06:16:45.509Z,29.97
2017-11-22T06:19:12.638Z,14.83
2017-11-22T06:21:40.508Z,23.13
2017-11-22T06:24:06.918Z,24.20
2017-11-22T06:26:33.309Z,16.63
2017-11-22T06:28:59.715Z,13.37
2017-11-22T06:31:26.927Z,19.00
2017-11-22T06:33:53.328Z,17.43
2017-11-22T06:36:19.755Z,22.00
2017-11-22T06:38:46.124Z,16.87
2017-11-22T06:41:12.496Z,18.30
2017-11-22T06:43:39.646Z,14.17
2017-11-22T06:46:19.691Z,16.47
2017-11-22T06:48:46.105Z,11.10
2017-11-22T06:51:12.499Z,14.70
2017-11-22T06:53:38.949Z,12.53
2017-11-22T06:56:05.344Z,20.73
2017-11-22T06:58:32.476Z,18.60
2017-11-22T07:01:00.643Z,11.97
2017-11-22T07:03:27.804Z,11.73
2017-11-22T07:05:54.938Z,19.00
2017-11-22T07:08:21.360Z,10.50
2017-11-22T07:10:47.772Z,12.90
2017-11-22T07:13:14.198Z,11.50
2017-11-22T07:15:40.624Z,9.57
2017-11-22T07:18:07.009Z,8.83
2017-11-22T07:20:34.206Z,8.33
2017-11-22T07:23:00.599Z,8.33
2017-11-22T07:25:26.997Z,11.90
2017-11-22T07:27:53.439Z,13.30
2017-11-22T07:30:21.307Z,12.43
2017-11-22T07:32:47.678Z,26.40
2017-11-22T07:35:14.815Z,14.73
2017-11-22T07:37:47.928Z,27.13
2017-11-22T07:40:14.328Z,27.33
2017-11-22T07:42:40.768Z,14.73
2017-11-22T07:45:08.417Z,7.97
2017-11-22T07:47:36.286Z,9.77
2017-11-22T07:50:02.689Z,9.40
2017-11-22T07:52:30.085Z,8.80
2017-11-22T07:54:57.236Z,11.63
2017-11-22T07:57:26.489Z,12.67
2017-11-22T07:59:52.911Z,19.97
2017-11-22T08:02:19.312Z,6.77
2017-11-22T08:04:45.749Z,9.30
2017-11-22T08:07:12.158Z,15.10
2017-11-22T08:09:38.533Z,7.03
2017-11-22T08:12:04.998Z,12.00
2017-11-22T08:14:31.380Z,10.40
2017-11-22T08:17:01.040Z,13.53
2017-11-22T08:19:27.896Z,13.77
2017-11-22T08:21:54.297Z,10.83
2017-11-22T08:24:20.723Z,11.60
2017-11-22T08:26:47.100Z,19.60
2017-11-22T08:29:14.251Z,18.00
2017-11-22T08:31:40.646Z,9.90
2017-11-22T08:34:07.075Z,12.33
2017-11-22T08:36:33.480Z,7.07
2017-11-22T08:38:59.865Z,15.73
2017-11-22T08:41:26.282Z,9.17
2017-11-22T08:43:55.657Z,14.40
2017-11-22T08:46:22.142Z,12.87
2017-11-22T08:48:49.280Z,7.03
2017-11-22T08:51:17.169Z,9.73
2017-11-22T08:53:44.363Z,10.60
2017-11-22T08:56:16.949Z,9.93
2017-11-22T08:58:43.350Z,22.13
2017-11-22T09:01:09.792Z,7.13
2017-11-22T09:03:42.236Z,6.40
2017-11-22T09:06:15.317Z,7.87
2017-11-22T09:08:42.498Z,8.87
2017-11-22T09:11:08.975Z,10.60
2017-11-22T09:13:35.388Z,9.67
2017-11-22T09:16:01.785Z,10.83
2017-11-22T09:18:30.976Z,9.93
2017-11-22T09:20:58.128Z,15.20
2017-11-22T09:23:25.378Z,9.23
2017-11-22T09:25:51.830Z,8.70
2017-11-22T09:28:18.254Z,10.87
2017-11-22T09:30:51.669Z,10.43
2017-11-22T09:33:18.096Z,12.13
2017-11-22T09:35:44.493Z,8.27
2017-11-22T09:38:10.874Z,7.77
2017-11-22T09:40:37.328Z,9.10
2017-11-22T09:43:03.728Z,15.97
2017-11-22T09:45:30.172Z,9.97
2017-11-22T09:47:56.552Z,11.33
2017-11-22T09:50:22.957Z,8.30
2017-11-22T09:52:49.345Z,17.13
2017-11-22T09:55:21.746Z,12.87
2017-11-22T09:57:48.158Z,11.70
2017-11-22T10:00:14.638Z,10.80
2017-11-22T10:02:41.812Z,9.33
2017-11-22T10:05:08.328Z,11.43
2017-11-22T10:07:34.759Z,9.53
2017-11-22T10:10:01.163Z,7.97
2017-11-22T10:12:27.587Z,12.03
2017-11-22T10:14:53.987Z,6.00
2017-11-22T10:17:27.155Z,9.30
2017-11-22T10:19:59.752Z,17.27
2017-11-22T10:22:26.949Z,22.97
2017-11-22T10:24:53.430Z,14.67
2017-11-22T10:27:26.729Z,7.30
2017-11-22T10:29:53.963Z,16.23
2017-11-22T10:32:20.454Z,9.47
2017-11-22T10:34:46.883Z,15.97
2017-11-22T10:37:13.268Z,12.87
2017-11-22T10:39:39.671Z,8.80
2017-11-22T10:42:06.890Z,8.50
2017-11-22T10:44:33.325Z,8.50
2017-11-22T10:46:59.734Z,15.83
2017-11-22T10:49:26.878Z,9.57
2017-11-22T10:51:53.268Z,8.60
2017-11-22T10:54:19.714Z,5.97
2017-11-22T10:56:46.190Z,8.43
2017-11-22T10:59:12.620Z,8.27
2017-11-22T11:01:39.807Z,7.63
2017-11-22T11:04:06.288Z,10.50
2017-11-22T11:06:32.807Z,8.30
2017-11-22T11:08:59.216Z,9.30
2017-11-22T11:11:25.621Z,17.03
2017-11-22T11:13:52.053Z,13.53
2017-11-22T11:16:18.463Z,15.43
2017-11-22T11:18:44.855Z,8.83
2017-11-22T11:21:11.268Z,12.57
2017-11-22T11:23:37.689Z,27.90
2017-11-22T11:26:04.061Z,9.33
2017-11-22T11:28:30.442Z,14.80
2017-11-22T11:30:56.899Z,13.90
2017-11-22T11:33:23.316Z,11.00
2017-11-22T11:36:02.064Z,11.93
2017-11-22T11:38:28.498Z,6.80
2017-11-22T11:40:54.928Z,9.97
2017-11-22T11:43:21.366Z,14.43
2017-11-22T11:45:47.799Z,11.50
2017-11-22T11:48:14.200Z,18.53
2017-11-22T11:50:40.652Z,8.40
2017-11-22T11:53:07.798Z,13.30
2017-11-22T11:55:34.230Z,8.20
2017-11-22T11:58:00.645Z,11.53
2017-11-22T12:00:27.116Z,8.33
2017-11-22T12:02:53.503Z,10.27
2017-11-22T12:05:20.637Z,15.03
2017-11-22T12:07:47.019Z,8.00
2017-11-22T12:10:13.410Z,12.33
2017-11-22T12:12:40.584Z,16.03
2017-11-22T12:15:06.976Z,9.87
2017-11-22T12:17:35.383Z,8.37
2017-11-22T12:20:02.549Z,12.47
2017-11-22T12:22:32.791Z,10.50
2017-11-22T12:24:59.239Z,14.73
2017-11-22T12:27:25.655Z,13.60
2017-11-22T12:29:52.061Z,13.10
2017-11-22T12:32:18.469Z,12.13
2017-11-22T12:34:45.609Z,13.83
2017-11-22T12:37:11.998Z,8.20
2017-11-22T12:39:38.368Z,10.00
2017-11-22T12:42:04.777Z,13.30
2017-11-22T12:44:31.149Z,14.73
2017-11-22T12:46:58.300Z,11.17
2017-11-22T12:49:25.440Z,20.40
2017-11-22T12:51:52.677Z,10.77
2017-11-22T12:54:19.079Z,12.70
2017-11-22T12:56:45.481Z,13.77
2017-11-22T12:59:11.900Z,22.27
2017-11-22T13:01:39.064Z,12.30
2017-11-22T13:04:05.473Z,13.33
2017-11-22T13:06:31.848Z,15.40
2017-11-22T13:08:58.336Z,25.73
2017-11-22T13:11:25.581Z,29.07
2017-11-22T13:13:51.995Z,26.13
2017-11-22T13:16:18.441Z,16.83
2017-11-22T13:18:44.853Z,21.97
2017-11-22T13:21:11.280Z,17.13
2017-11-22T13:23:37.720Z,18.37
2017-11-22T13:26:04.150Z,15.70
2017-11-22T13:28:30.596Z,17.03
2017-11-22T13:30:56.987Z,17.83
2017-11-22T13:33:23.397Z,17.27
2017-11-22T13:35:50.593Z,7.73
2017-11-22T13:38:17.088Z,20.03
2017-11-22T13:40:44.277Z,11.27
2017-11-22T13:43:10.696Z,25.53
2017-11-22T13:45:37.131Z,11.77
2017-11-22T13:48:03.559Z,12.40
2017-11-22T13:50:30.113Z,10.70
2017-11-22T13:52:56.547Z,11.57
2017-11-22T13:55:22.976Z,13.77
2017-11-22T13:57:49.389Z,10.30
2017-11-22T14:00:15.818Z,11.83
2017-11-22T14:02:42.257Z,9.53
2017-11-22T14:05:08.696Z,10.97
2017-11-22T14:07:35.148Z,11.87
2017-11-22T14:10:01.632Z,8.27
2017-11-22T14:12:28.144Z,12.73
2017-11-22T14:14:54.619Z,20.60
2017-11-22T14:17:21.080Z,23.60
2017-11-22T14:19:47.516Z,16.77
2017-11-22T14:22:13.950Z,11.80
2017-11-22T14:24:40.429Z,9.80
2017-11-22T14:27:06.887Z,17.83
2017-11-22T14:29:33.322Z,21.07
2017-11-22T14:31:59.721Z,22.37
2017-11-22T14:34:26.205Z,10.43
2017-11-22T14:36:52.684Z,11.50
2017-11-22T14:39:19.139Z,9.83
2017-11-22T14:41:46.326Z,6.70
2017-11-22T14:44:12.794Z,24.37
2017-11-22T14:46:39.297Z,19.27
2017-11-22T14:49:05.784Z,34.00
2017-11-22T14:51:33.016Z,21.83
2017-11-22T14:53:59.916Z,17.00
2017-11-22T14:56:26.449Z,18.90
2017-11-22T14:58:52.869Z,10.33
2017-11-22T15:01:20.047Z,8.43
2017-11-22T15:03:46.518Z,14.17
2017-11-22T15:06:13.003Z,8.90
2017-11-22T15:08:39.511Z,8.83
2017-11-22T15:11:06.696Z,13.70
2017-11-22T15:13:33.144Z,16.43
2017-11-22T15:15:59.582Z,12.60
2017-11-22T15:18:26.018Z,22.23
2017-11-22T15:20:52.488Z,61.50
2017-11-22T15:23:18.947Z,49.50
2017-11-22T15:25:45.394Z,71.67
2017-11-22T15:28:12.067Z,48.60
2017-11-22T15:30:38.540Z,73.57
2017-11-22T15:33:05.738Z,42.87
2017-11-22T15:35:32.242Z,14.50
2017-11-22T15:37:58.719Z,16.07
2017-11-22T15:40:25.158Z,55.20
2017-11-22T15:42:52.416Z,359.33
2017-11-22T15:45:18.912Z,293.43
2017-11-22T15:47:45.334Z,317.03
2017-11-22T15:50:11.789Z,266.43
2017-11-22T15:52:38.283Z,354.60
2017-11-22T15:55:05.699Z,222.53
2017-11-22T15:57:32.166Z,177.33
2017-11-22T15:59:59.328Z,239.73
2017-11-22T16:02:25.765Z,96.97
2017-11-22T16:04:52.182Z,76.60
2017-11-22T16:07:19.339Z,47.10
2017-11-22T16:09:45.775Z,37.17
2017-11-22T16:12:12.916Z,37.37
2017-11-22T16:14:40.087Z,37.37
2017-11-22T16:17:06.508Z,25.60
2017-11-22T16:19:32.921Z,50.93
2017-11-22T16:22:00.057Z,32.77
2017-11-22T16:24:26.456Z,28.07
2017-11-22T16:26:52.922Z,73.97
2017-11-22T16:29:20.117Z,39.10
2017-11-22T16:31:46.516Z,40.43
2017-11-22T16:34:12.945Z,16.53
2017-11-22T16:36:40.100Z,55.00
2017-11-22T16:39:07.552Z,94.93
2017-11-22T16:41:33.973Z,247.87
2017-11-22T16:44:00.409Z,171.47
2017-11-22T16:46:26.852Z,227.33
2017-11-22T16:48:53.823Z,131.00
2017-11-22T16:51:20.261Z,63.17
2017-11-22T16:53:46.701Z,21.40
2017-11-22T16:56:13.109Z,123.47
2017-11-22T16:58:40.287Z,159.17
2017-11-22T17:01:06.777Z,79.17
2017-11-22T17:03:33.183Z,16.53
2017-11-22T17:05:59.602Z,18.23
2017-11-22T17:08:25.996Z,22.40
2017-11-22T17:10:53.185Z,52.50
2017-11-22T17:13:19.579Z,48.43
2017-11-22T17:15:46.706Z,115.47
2017-11-22T17:18:13.860Z,48.60
2017-11-22T17:20:40.322Z,40.00
2017-11-22T17:23:06.738Z,42.77
2017-11-22T17:25:33.945Z,33.23
2017-11-22T17:28:00.366Z,30.13
2017-11-22T17:30:26.774Z,25.57
2017-11-22T17:32:58.241Z,17.00
2017-11-22T17:35:24.657Z,21.57
2017-11-22T17:37:51.069Z,15.07
2017-11-22T17:40:18.219Z,46.33
2017-11-22T17:42:45.357Z,20.90
2017-11-22T17:45:12.537Z,12.63
2017-11-22T17:47:38.938Z,19.80
2017-11-22T17:50:06.125Z,11.00
2017-11-22T17:52:32.557Z,12.80
2017-11-22T17:54:59.849Z,16.60
2017-11-22T17:57:26.296Z,24.63
2017-11-22T17:59:53.514Z,11.80
2017-11-22T18:02:19.936Z,14.40
2017-11-22T18:04:46.389Z,11.13
2017-11-22T18:07:12.820Z,9.37
2017-11-22T18:09:39.254Z,8.97
2017-11-22T18:12:05.657Z,8.73
2017-11-22T18:14:32.092Z,12.40
2017-11-22T18:16:58.471Z,16.10
2017-11-22T18:19:24.864Z,18.40
2017-11-22T18:21:51.292Z,25.30
2017-11-22T18:24:17.745Z,15.40
2017-11-22T18:26:44.150Z,34.43
2017-11-22T18:29:10.553Z,20.10
2017-11-22T18:31:36.996Z,11.70
2017-11-22T18:34:04.196Z,15.53
2017-11-22T18:36:30.673Z,19.20
2017-11-22T18:38:57.846Z,20.87
2017-11-22T18:41:24.301Z,29.80
2017-11-22T18:43:50.746Z,31.70
2017-11-22T18:46:17.153Z,30.83
2017-11-22T18:48:43.598Z,29.33
2017-11-22T18:51:10.028Z,27.93
2017-11-22T18:53:36.497Z,32.67
2017-11-22T18:56:02.926Z,25.17
2017-11-22T18:58:29.316Z,26.23
2017-11-22T19:00:55.777Z,31.87
2017-11-22T19:03:22.256Z,35.50
2017-11-22T19:05:49.453Z,40.63
2017-11-22T19:08:15.898Z,28.57
2017-11-22T19:10:42.351Z,32.40
2017-11-22T19:13:08.775Z,39.40
2017-11-22T19:15:35.183Z,37.53
2017-11-22T19:18:01.572Z,28.80
2017-11-22T19:20:28.714Z,18.90
2017-11-22T19:22:55.945Z,17.80
2017-11-22T19:25:22.355Z,23.33
2017-11-22T19:27:48.773Z,34.13
2017-11-22T19:30:15.200Z,22.93
2017-11-22T19:32:41.584Z,40.60
2017-11-22T19:35:07.965Z,33.00
2017-11-22T19:37:34.365Z,26.47
2017-11-22T19:40:00.755Z,29.07
2017-11-22T19:42:27.184Z,33.10
2017-11-22T19:44:53.587Z,24.90
2017-11-22T19:47:19.982Z,22.10
2017-11-22T19:49:46.422Z,24.93
2017-11-22T19:52:12.809Z,27.27
2017-11-22T19:54:39.220Z,34.30
2017-11-22T19:57:05.755Z,33.97
2017-11-22T19:59:32.141Z,25.43
2017-11-22T20:01:58.547Z,35.90
2017-11-22T20:04:24.957Z,24.60
2017-11-22T20:07:03.699Z,40.67
2017-11-22T20:09:30.128Z,33.90
2017-11-22T20:11:56.537Z,28.60
2017-11-22T20:14:22.952Z,30.93
2017-11-22T20:16:49.551Z,34.73
2017-11-22T20:19:15.953Z,35.37
2017-11-22T20:21:42.368Z,30.00
2017-11-22T20:24:09.484Z,40.93
2017-11-22T20:26:35.872Z,23.40
2017-11-22T20:29:02.263Z,36.73
2017-11-22T20:31:29.395Z,30.07
2017-11-22T20:33:55.803Z,29.07
2017-11-22T20:36:22.203Z,31.90
2017-11-22T20:38:48.597Z,36.90
2017-11-22T20:41:15.007Z,33.80
2017-11-22T20:43:41.437Z,34.30
2017-11-22T20:46:07.833Z,33.77
2017-11-22T20:48:34.203Z,29.97
2017-11-22T20:51:00.610Z,30.13
2017-11-22T20:53:27.751Z,34.27
2017-11-22T20:55:54.190Z,25.67
2017-11-22T20:58:20.644Z,29.73
2017-11-22T21:00:47.138Z,36.07
2017-11-22T21:03:13.570Z,39.70
2017-11-22T21:05:39.973Z,38.50
2017-11-22T21:08:07.157Z,35.67
2017-11-22T21:10:34.659Z,33.40
2017-11-22T21:13:01.068Z,45.90
2017-11-22T21:15:27.461Z,46.57
2017-11-22T21:17:54.652Z,75.13
2017-11-22T21:20:21.037Z,44.60
2017-11-22T21:22:48.195Z,42.83
2017-11-22T21:25:15.336Z,52.53
2017-11-22T21:27:42.458Z,69.93
2017-11-22T21:30:08.861Z,49.77
2017-11-22T21:32:35.268Z,44.83
2017-11-22T21:35:01.656Z,54.20
2017-11-22T21:37:28.056Z,44.90
2017-11-22T21:39:54.475Z,56.50
2017-11-22T21:42:20.897Z,58.40
2017-11-22T21:44:47.305Z,62.37
2017-11-22T21:47:14.444Z,71.30
2017-11-22T21:49:40.845Z,66.37
2017-11-22T21:52:07.274Z,58.37
2017-11-22T21:54:33.689Z,51.80
2017-11-22T21:57:00.113Z,54.37
2017-11-22T21:59:26.511Z,45.30
2017-11-22T22:01:52.916Z,43.40
2017-11-22T22:04:19.302Z,38.87
2017-11-22T22:06:45.728Z,37.33
2017-11-22T22:09:12.850Z,37.73
2017-11-22T22:11:39.271Z,40.07
2017-11-22T22:14:05.676Z,37.90
2017-11-22T22:16:32.808Z,38.13
2017-11-22T22:18:59.953Z,30.33
2017-11-22T22:21:26.349Z,35.57
2017-11-22T22:23:52.754Z,45.80
2017-11-22T22:26:19.147Z,33.17
2017-11-22T22:28:45.553Z,43.47
2017-11-22T22:31:12.726Z,30.07
2017-11-22T22:33:39.115Z,30.73
2017-11-22T22:36:05.489Z,36.67
2017-11-22T22:38:32.624Z,36.20
2017-11-22T22:40:59.044Z,45.10
2017-11-22T22:43:25.437Z,60.27
2017-11-22T22:45:51.842Z,39.67
2017-11-22T22:48:18.267Z,43.33
2017-11-22T22:50:44.671Z,43.07
2017-11-22T22:53:11.068Z,33.73
2017-11-22T22:55:37.469Z,32.97
2017-11-22T22:58:03.873Z,41.87
2017-11-22T23:00:31.002Z,41.80
2017-11-22T23:02:57.409Z,46.47
2017-11-22T23:05:23.790Z,53.07
2017-11-22T23:07:50.900Z,39.40
2017-11-22T23:10:17.312Z,35.83
2017-11-22T23:12:43.727Z,38.80
2017-11-22T23:15:10.146Z,38.13
2017-11-22T23:17:37.259Z,36.83
2017-11-22T23:20:03.672Z,41.63
2017-11-22T23:22:30.075Z,42.83
2017-11-22T23:24:56.474Z,37.90
2017-11-22T23:27:22.840Z,33.00
2017-11-22T23:29:49.237Z,44.30
2017-11-22T23:32:15.635Z,37.40
2017-11-22T23:34:42.116Z,31.90
2017-11-22T23:37:09.239Z,31.93
2017-11-22T23:39:35.656Z,42.70
2017-11-22T23:42:02.042Z,34.00
2017-11-22T23:44:28.433Z,32.50
2017-11-22T23:46:54.859Z,30.50
2017-11-22T23:49:21.352Z,34.70
2017-11-22T23:51:47.766Z,73.20
2017-11-22T23:54:14.164Z,108.37
2017-11-22T23:56:40.621Z,70.30
2017-11-22T23:59:07.781Z,74.23
